Portada
METAR-TAF:

METAR-TAF

Aeroports :

Siem Reap, Cambodja

latitud: 13-22N, longitud: 103-51E, altitud: 15 m

Observació

L'informe es va fer fa 28 minuts, a les 08:30 UTC
Vent 5 kt del Oest/Sud-Oest, variant entre Sud/Sud-Oest i Oest
Temperatura 30°C
Humitat 49%
Pressió 1006 hPa
Visibilitat 10 km o més
Escasses núvols a una alçada de 1700 ft

METAR: VDSR 240830Z 24005KT 210V270 9999 FEW017 30/18 Q1006

Hora: 15:58 (08:58 UTC)

Pronòstic

L'informe es va fer fa 3 hores i 58 minuts, a les 05:00 UTC
Pronòstic vàlid del 24 a les 06 UTC al 24 a les 24 UTC
Vent 7 kt del Nord-Est
Visibilitat 10 km o més
Núvols disperses a una alçada de 1700 ft

TAF: VDSR 240500Z 2406/2424 05007KT 9999 SCT017

Observacions i pronòstics meteorològics de més de 4000 aeroports (METAR i TAF).

Les estacions disponibles són els punts grocs i vermells al mapa.

Posi el ratolí al punt desitjat per veure el nom de l'estació.

Feu clic per veure les observacions i els pronòstics meteorològics.

Per canviar el mapa: feu clic els botons verds amb una creu de color negre per apropar; al botó verd amb un guió per allunyar la imatge; o en les fletxes verdes per a mapes adjacents.


METAR-TAF: